Mathilde Maersk — OUJS2 — position and weather

sailwx.info

Track history (hours):
 
Tides and Currents Weather Stations Pressure Air Temp Water Temp Dewpoint Dewpoint Depression Visibility Wind Speed Wind Dir Waves Ship Positions

Mathilde Maersk

Last reported at 2015-May-22 04:32 UTC. Time now 2015-May-25 21:41 UTC.
Position N 30°27' E 125°30'.

Length 367 m; draft 12.2 m.

Type: Ship (hazmat cat B). MMSI: 220597990.

Date/timePositionNaut miles runAvg speedWind from/ knotsBaromVisibWave heightAir tempDewpointWater temp
2015-May-22 04:32N 30°27' E 125°30'2221.1
2015-May-22 03:31N 30°24' E 125°05'2320.6
2015-May-22 02:24N 30°24' E 124°38'11720.0
2015-May-21 20:33N 30°32' E 122°23'1514.8
2015-May-21 19:33N 30°36' E 122°06'4 1.3
2015-May-21 16:33N 30°38' E 122°03'0 0.0
2015-May-21 15:27N 30°38' E 122°03'0 0.0
2015-May-21 12:30N 30°38' E 122°03'0 0.0
2015-May-21 11:18N 30°38' E 122°03'0 0.0
2015-May-20 20:30N 30°38' E 122°03'5 4.9
2015-May-20 19:33N 30°35' E 122°07'8 7.7
2015-May-20 18:31N 30°33' E 122°16'5 5.2
2015-May-20 17:32N 30°32' E 122°22'9 8.1
2015-May-20 16:29N 30°31' E 122°32'1010.6
2015-May-20 15:33N 30°28' E 122°43'1110.9
2015-May-20 14:33N 30°23' E 122°54'2210.0
2015-May-20 12:21N 30°03' E 123°02'1011.0
2015-May-20 11:26N 29°56' E 122°53'1011.3
2015-May-20 10:33N 29°50' E 122°43'1010.6
2015-May-20 09:34N 29°47' E 122°32'1111.2
2015-May-20 08:33N 29°45' E 122°19'1211.7
2015-May-20 07:33N 29°54' E 122°10'1313.4
2015-May-20 06:33N 29°58' E 121°56'5 4.6
2015-May-20 05:32N 29°57' E 121°50'0 0.0
2015-May-20 04:32N 29°57' E 121°50'0 0.0
2015-May-20 03:32N 29°57' E 121°50'0 0.0
2015-May-20 02:20N 29°57' E 121°50'0 0.0
2015-May-20 01:20N 29°57' E 121°50'0 0.0
2015-May-20 00:32N 29°57' E 121°50'0 0.0
2015-May-19 23:26N 29°57' E 121°50'0 0.0
2015-May-19 22:32N 29°57' E 121°50'0 0.0
2015-May-19 21:29N 29°57' E 121°50'0 0.0
2015-May-19 20:26N 29°57' E 121°50'0 0.0
2015-May-19 19:26N 29°57' E 121°50'0 0.0
2015-May-19 18:20N 29°57' E 121°50'0 0.0
2015-May-19 17:32N 29°57' E 121°50'0 0.0
2015-May-19 16:32N 29°57' E 121°50'0 0.0
2015-May-19 15:14N 29°57' E 121°50'0 0.0
2015-May-19 14:32N 29°57' E 121°50'0 0.0
2015-May-19 13:26N 29°57' E 121°50'0 0.0
2015-May-19 12:32N 29°57' E 121°50'0 0.1
2015-May-19 11:33N 29°57' E 121°50'2 1.7
2015-May-19 10:21N 29°57' E 121°53'0 0.0
2015-May-19 09:03N 29°57' E 121°53'0 0.0
2015-May-19 08:21N 29°57' E 121°53'0 0.1
2015-May-19 07:33N 29°57' E 121°53'0 0.1
2015-May-19 06:21N 29°57' E 121°53'0 0.0
2015-May-19 05:27N 29°57' E 121°53'0 0.2
2015-May-19 03:15N 29°57' E 121°52'0 0.0
2015-May-19 01:03N 29°57' E 121°52'0 0.1
2015-May-19 00:33N 29°57' E 121°52'0 0.4
2015-May-18 23:33N 29°57' E 121°53'0 0.0
2015-May-18 22:21N 29°57' E 121°53'0 0.1
2015-May-18 21:33N 29°57' E 121°53'0 0.1
2015-May-18 20:33N 29°57' E 121°53'0 0.1
2015-May-18 19:21N 29°57' E 121°53'0 0.0
2015-May-18 18:33N 29°57' E 121°53'0 0.3
2015-May-18 17:34N 29°57' E 121°53'0 0.2
2015-May-18 16:33N 29°57' E 121°53'7 6.6
2015-May-18 15:33N 29°57' E 122°00'1212.0
2015-May-18 14:33N 29°51' E 122°12'1111.2
2015-May-18 13:34N 29°45' E 122°23'8 8.5
2015-May-18 12:33N 29°39' E 122°30'1110.6
2015-May-18 11:33N 29°28' E 122°30'29719.3
2015-May-17 20:07N 25°01' E 120°02'1820.7
2015-May-17 19:14N 24°48' E 119°48'3720.4
2015-May-17 17:23N 24°26' E 119°15'4319.3
2015-May-17 15:11N 24°00' E 118°38'1219.5
2015-May-17 14:33N 23°54' E 118°26'2020.2
2015-May-17 13:33N 23°42' E 118°08'2420.6
2015-May-17 12:25N 23°28' E 117°47'1920.5
2015-May-17 11:28N 23°15' E 117°32'18516.8
2015-May-17 00:27N 22°34' E 114°16'0 0.0
2015-May-16 20:33N 22°34' E 114°16'0 0.0
2015-May-16 04:06N 22°34' E 114°16'18 5.2
2015-May-16 00:33N 22°23' E 114°32'3 2.8
2015-May-15 23:33N 22°23' E 114°35'3 3.0
2015-May-15 22:32N 22°20' E 114°35'16911.3
2015-May-15 07:31N 23°14' E 117°29'1513.3
2015-May-15 06:24N 23°22' E 117°42'1415.2
2015-May-15 05:30N 23°30' E 117°55'1718.0
2015-May-15 04:33N 23°39' E 118°11'1918.0
2015-May-15 03:29N 23°50' E 118°28'1717.8
2015-May-15 02:32N 24°01' E 118°42'1917.7
2015-May-15 01:27N 24°15' E 118°56'1717.5
2015-May-15 00:30N 24°25' E 119°10'1916.7
2015-May-14 23:22N 24°36' E 119°28'2116.2
2015-May-14 22:05N 24°48' E 119°46'916.3
2015-May-14 21:33N 24°53' E 119°54'37716.8
2015-May-13 23:03N 29°34' E 124°37'1216.6
2015-May-13 22:21N 29°43' E 124°45'8516.8
2015-May-13 17:16N 30°52' E 125°44'1316.8
2015-May-13 16:30N 31°02' E 125°52'8616.4
2015-May-13 11:15N 32°16' E 126°45'1116.4
2015-May-13 10:33N 32°26' E 126°52'1616.3
2015-May-13 09:33N 32°40' E 127°02'1716.4
2015-May-13 08:33N 32°54' E 127°12'1616.3
2015-May-13 07:34N 33°07' E 127°23'  
Track history (hours):
 
Tides and Currents Weather Stations Pressure Air Temp Water Temp Dewpoint Dewpoint Depression Visibility Wind Speed Wind Dir Waves Ship Positions

Mathilde Maersk

Last reported at 2015-May-22 04:32 UTC. Time now 2015-May-25 21:41 UTC.
Position N 30°27' E 125°30'.

Length 367 m; draft 12.2 m.

Type: Ship (hazmat cat B). MMSI: 220597990.

Date/timePositionNaut miles runAvg speedWind from/ knotsBaromVisibWave heightAir tempDewpointWater temp
2015-May-22 04:32N 30°27' E 125°30'2221.1
2015-May-22 03:31N 30°24' E 125°05'2320.6
2015-May-22 02:24N 30°24' E 124°38'11720.0
2015-May-21 20:33N 30°32' E 122°23'1514.8
2015-May-21 19:33N 30°36' E 122°06'4 1.3
2015-May-21 16:33N 30°38' E 122°03'0 0.0
2015-May-21 15:27N 30°38' E 122°03'0 0.0
2015-May-21 12:30N 30°38' E 122°03'0 0.0
2015-May-21 11:18N 30°38' E 122°03'0 0.0
2015-May-20 20:30N 30°38' E 122°03'5 4.9
2015-May-20 19:33N 30°35' E 122°07'8 7.7
2015-May-20 18:31N 30°33' E 122°16'5 5.2
2015-May-20 17:32N 30°32' E 122°22'9 8.1
2015-May-20 16:29N 30°31' E 122°32'1010.6
2015-May-20 15:33N 30°28' E 122°43'1110.9
2015-May-20 14:33N 30°23' E 122°54'2210.0
2015-May-20 12:21N 30°03' E 123°02'1011.0
2015-May-20 11:26N 29°56' E 122°53'1011.3
2015-May-20 10:33N 29°50' E 122°43'1010.6
2015-May-20 09:34N 29°47' E 122°32'1111.2
2015-May-20 08:33N 29°45' E 122°19'1211.7
2015-May-20 07:33N 29°54' E 122°10'1313.4
2015-May-20 06:33N 29°58' E 121°56'5 4.6
2015-May-20 05:32N 29°57' E 121°50'0 0.0
2015-May-20 04:32N 29°57' E 121°50'0 0.0
2015-May-20 03:32N 29°57' E 121°50'0 0.0
2015-May-20 02:20N 29°57' E 121°50'0 0.0
2015-May-20 01:20N 29°57' E 121°50'0 0.0
2015-May-20 00:32N 29°57' E 121°50'0 0.0
2015-May-19 23:26N 29°57' E 121°50'0 0.0
2015-May-19 22:32N 29°57' E 121°50'0 0.0
2015-May-19 21:29N 29°57' E 121°50'0 0.0
2015-May-19 20:26N 29°57' E 121°50'0 0.0
2015-May-19 19:26N 29°57' E 121°50'0 0.0
2015-May-19 18:20N 29°57' E 121°50'0 0.0
2015-May-19 17:32N 29°57' E 121°50'0 0.0
2015-May-19 16:32N 29°57' E 121°50'0 0.0
2015-May-19 15:14N 29°57' E 121°50'0 0.0
2015-May-19 14:32N 29°57' E 121°50'0 0.0
2015-May-19 13:26N 29°57' E 121°50'0 0.0
2015-May-19 12:32N 29°57' E 121°50'0 0.1
2015-May-19 11:33N 29°57' E 121°50'2 1.7
2015-May-19 10:21N 29°57' E 121°53'0 0.0
2015-May-19 09:03N 29°57' E 121°53'0 0.0
2015-May-19 08:21N 29°57' E 121°53'0 0.1
2015-May-19 07:33N 29°57' E 121°53'0 0.1
2015-May-19 06:21N 29°57' E 121°53'0 0.0
2015-May-19 05:27N 29°57' E 121°53'0 0.2
2015-May-19 03:15N 29°57' E 121°52'0 0.0
2015-May-19 01:03N 29°57' E 121°52'0 0.1
2015-May-19 00:33N 29°57' E 121°52'0 0.4
2015-May-18 23:33N 29°57' E 121°53'0 0.0
2015-May-18 22:21N 29°57' E 121°53'0 0.1
2015-May-18 21:33N 29°57' E 121°53'0 0.1
2015-May-18 20:33N 29°57' E 121°53'0 0.1
2015-May-18 19:21N 29°57' E 121°53'0 0.0
2015-May-18 18:33N 29°57' E 121°53'0 0.3
2015-May-18 17:34N 29°57' E 121°53'0 0.2
2015-May-18 16:33N 29°57' E 121°53'7 6.6
2015-May-18 15:33N 29°57' E 122°00'1212.0
2015-May-18 14:33N 29°51' E 122°12'1111.2
2015-May-18 13:34N 29°45' E 122°23'8 8.5
2015-May-18 12:33N 29°39' E 122°30'1110.6
2015-May-18 11:33N 29°28' E 122°30'29719.3
2015-May-17 20:07N 25°01' E 120°02'1820.7
2015-May-17 19:14N 24°48' E 119°48'3720.4
2015-May-17 17:23N 24°26' E 119°15'4319.3
2015-May-17 15:11N 24°00' E 118°38'1219.5
2015-May-17 14:33N 23°54' E 118°26'2020.2
2015-May-17 13:33N 23°42' E 118°08'2420.6
2015-May-17 12:25N 23°28' E 117°47'1920.5
2015-May-17 11:28N 23°15' E 117°32'18516.8
2015-May-17 00:27N 22°34' E 114°16'0 0.0
2015-May-16 20:33N 22°34' E 114°16'0 0.0
2015-May-16 04:06N 22°34' E 114°16'18 5.2
2015-May-16 00:33N 22°23' E 114°32'3 2.8
2015-May-15 23:33N 22°23' E 114°35'3 3.0
2015-May-15 22:32N 22°20' E 114°35'16911.3
2015-May-15 07:31N 23°14' E 117°29'1513.3
2015-May-15 06:24N 23°22' E 117°42'1415.2
2015-May-15 05:30N 23°30' E 117°55'1718.0
2015-May-15 04:33N 23°39' E 118°11'1918.0
2015-May-15 03:29N 23°50' E 118°28'1717.8
2015-May-15 02:32N 24°01' E 118°42'1917.7
2015-May-15 01:27N 24°15' E 118°56'1717.5
2015-May-15 00:30N 24°25' E 119°10'1916.7
2015-May-14 23:22N 24°36' E 119°28'2116.2
2015-May-14 22:05N 24°48' E 119°46'916.3
2015-May-14 21:33N 24°53' E 119°54'37716.8
2015-May-13 23:03N 29°34' E 124°37'1216.6
2015-May-13 22:21N 29°43' E 124°45'8516.8
2015-May-13 17:16N 30°52' E 125°44'1316.8
2015-May-13 16:30N 31°02' E 125°52'8616.4
2015-May-13 11:15N 32°16' E 126°45'1116.4
2015-May-13 10:33N 32°26' E 126°52'1616.3
2015-May-13 09:33N 32°40' E 127°02'1716.4
2015-May-13 08:33N 32°54' E 127°12'1616.3
2015-May-13 07:34N 33°07' E 127°23'  

Dump ship's entire track history